Time;durP1;ratioP1;P1;durP2;ratioP2;P2;SDS_P1;SDS_P2;PMS_P1;PMS_P2;Temp;Humidity;BMP_temperature;BMP_pressure;BME280_temperature;BME280_humidity;BME280_pressure;Samples;Min_cycle;Max_cycle;Signal;HPM_P1;HPM_P2
2023/12/31 00:01:01;;;;;;;196.18;7.10;;;;;;;21.35;49.06;99153.25;7295628;19;129522;-39
2023/12/31 00:03:27;;;;;;;239.40;9.02;;;;;;;21.47;49.03;99167.72;7295728;19;131255;-38
2023/12/31 00:05:52;;;;;;;253.67;9.30;;;;;;;21.36;49.39;99144.41;7298025;19;129794;-37
2023/12/31 00:08:17;;;;;;;125.72;4.88;;;;;;;21.50;49.54;99164.78;7297833;19;129556;-37
2023/12/31 00:10:43;;;;;;;266.23;10.27;;;;;;;21.47;49.70;99157.25;7295649;19;129940;-39
2023/12/31 00:13:08;;;;;;;229.63;8.35;;;;;;;21.49;49.36;99160.56;7298036;19;130264;-39
2023/12/31 00:15:33;;;;;;;229.60;8.48;;;;;;;21.33;49.68;99133.41;7299768;19;132845;-37
2023/12/31 00:17:59;;;;;;;178.80;6.63;;;;;;;21.47;49.23;99153.84;7298335;19;130351;-37
2023/12/31 00:20:24;;;;;;;228.55;8.57;;;;;;;21.51;48.91;99150.75;7295182;19;130446;-37
2023/12/31 00:22:49;;;;;;;197.47;7.00;;;;;;;21.51;49.15;99156.00;7292699;19;131993;-38
2023/12/31 00:25:15;;;;;;;236.27;8.73;;;;;;;21.50;49.10;99150.91;7299015;19;129703;-40
2023/12/31 00:27:41;;;;;;;221.50;8.13;;;;;;;21.50;49.24;99146.50;7296405;19;130513;-37
2023/12/31 00:30:07;;;;;;;191.75;6.95;;;;;;;21.47;49.02;99141.56;7295630;19;130371;-35
2023/12/31 00:32:32;;;;;;;293.08;10.90;;;;;;;21.49;49.64;99137.00;7295760;19;129216;-39
2023/12/31 00:34:58;;;;;;;225.88;8.25;;;;;;;21.46;49.24;99134.69;7295575;19;129441;-37
2023/12/31 00:37:23;;;;;;;180.10;6.50;;;;;;;21.49;49.02;99134.41;7296658;19;131276;-37
2023/12/31 00:39:48;;;;;;;197.20;7.40;;;;;;;21.51;48.91;99135.06;7297257;19;131622;-38
2023/12/31 00:42:14;;;;;;;243.83;9.10;;;;;;;21.50;48.88;99130.00;7297123;19;130954;-38
2023/12/31 00:44:39;;;;;;;217.30;8.20;;;;;;;21.52;49.75;99131.47;7293763;19;129837;-39
2023/12/31 00:47:05;;;;;;;218.88;8.05;;;;;;;21.33;48.95;99108.09;7297220;19;130153;-38
2023/12/31 00:49:30;;;;;;;240.20;8.77;;;;;;;21.51;49.42;99137.69;7297117;19;131737;-39
2023/12/31 00:51:55;;;;;;;239.07;8.95;;;;;;;21.51;49.35;99137.69;7296357;19;129412;-37
2023/12/31 00:54:21;;;;;;;207.13;7.83;;;;;;;21.50;49.01;99130.00;7295631;19;129600;-37
2023/12/31 00:56:46;;;;;;;107.40;4.13;;;;;;;21.52;49.37;99122.78;7295411;19;132553;-38
2023/12/31 00:59:11;;;;;;;268.88;9.77;;;;;;;21.48;48.94;99130.16;7296339;19;132548;-38
2023/12/31 01:01:37;;;;;;;270.20;9.85;;;;;;;21.49;49.56;99128.34;7294851;19;131755;-38
2023/12/31 01:04:02;;;;;;;184.45;6.60;;;;;;;21.49;49.46;99121.31;7294810;19;129944;-38
2023/12/31 01:06:27;;;;;;;275.23;10.18;;;;;;;21.49;49.26;99129.16;7295575;19;133171;-36
2023/12/31 01:08:54;;;;;;;274.57;10.07;;;;;;;21.50;49.47;99128.19;7294194;19;131361;-39
2023/12/31 01:11:20;;;;;;;128.32;4.65;;;;;;;21.49;49.51;99121.31;7297351;19;132285;-36
2023/12/31 01:13:46;;;;;;;184.43;7.07;;;;;;;21.50;48.97;99114.31;7295347;19;129539;-38
2023/12/31 01:16:11;;;;;;;186.07;6.78;;;;;;;21.48;48.85;99119.69;7296140;19;131573;-38
2023/12/31 01:18:37;;;;;;;285.53;10.67;;;;;;;21.51;49.49;99132.47;7294639;19;130320;-39
2023/12/31 01:21:02;;;;;;;144.20;5.18;;;;;;;21.51;49.55;99127.22;7294731;19;129402;-38
2023/12/31 01:23:27;;;;;;;217.80;8.27;;;;;;;21.50;49.55;99132.63;7294921;19;129843;-38
2023/12/31 01:25:54;;;;;;;262.25;9.82;;;;;;;21.50;49.42;99128.19;7294844;19;131621;-36
2023/12/31 01:28:19;;;;;;;275.33;9.87;;;;;;;21.49;48.87;99129.16;7295740;19;131093;-38
2023/12/31 01:30:44;;;;;;;215.35;8.45;;;;;;;21.52;49.22;99115.78;7294819;19;130776;-36
2023/12/31 01:33:10;;;;;;;187.93;6.97;;;;;;;21.50;49.22;99115.09;7294995;19;131261;-38
2023/12/31 01:35:35;;;;;;;214.90;8.20;;;;;;;21.47;49.20;99110.19;7294817;19;130211;-35
2023/12/31 01:38:01;;;;;;;240.33;8.60;;;;;;;21.46;49.62;99108.53;7294776;19;129662;-38
2023/12/31 01:40:26;;;;;;;213.82;7.75;;;;;;;21.49;49.29;99105.63;7295212;19;130815;-41
2023/12/31 01:42:51;;;;;;;187.43;6.97;;;;;;;21.49;49.35;99102.19;7295465;19;130074;-38
2023/12/31 01:45:17;;;;;;;211.45;7.88;;;;;;;21.51;49.46;99105.47;7294970;19;130252;-37
2023/12/31 01:47:43;;;;;;;195.37;7.23;;;;;;;21.49;49.44;99099.56;7294652;19;130697;-37
2023/12/31 01:50:12;;;;;;;110.32;4.05;;;;;;;21.39;48.83;99081.34;7295943;19;130115;-38
2023/12/31 01:52:39;;;;;;;264.63;10.00;;;;;;;21.51;48.84;99101.06;7292148;19;129801;-38
2023/12/31 01:55:06;;;;;;;218.70;7.97;;;;;;;21.51;48.80;99093.22;7293888;19;133516;-38
2023/12/31 01:57:35;;;;;;;217.93;7.97;;;;;;;21.52;48.85;99081.78;7294500;19;133626;-39
2023/12/31 02:00:03;;;;;;;232.02;8.43;;;;;;;21.50;49.32;99088.94;7294950;19;129122;-37
2023/12/31 02:02:31;;;;;;;203.07;7.65;;;;;;;21.52;49.06;99086.19;7294441;19;131036;-37
2023/12/31 02:04:56;;;;;;;208.52;7.60;;;;;;;21.50;49.37;99083.72;7291972;19;130992;-39
2023/12/31 02:07:22;;;;;;;275.38;10.18;;;;;;;21.49;48.89;99095.16;7293935;19;131606;-37
2023/12/31 02:09:48;;;;;;;220.77;8.18;;;;;;;21.52;49.21;99086.19;7295295;19;129511;-38
2023/12/31 02:12:14;;;;;;;203.67;7.43;;;;;;;21.50;49.45;99086.34;7293792;19;129685;-38
2023/12/31 02:14:39;;;;;;;255.80;9.87;;;;;;;21.52;49.03;99081.78;7289076;19;131185;-37
2023/12/31 02:17:04;;;;;;;223.52;8.18;;;;;;;21.51;48.66;99080.16;7293154;19;130473;-38
2023/12/31 02:19:30;;;;;;;239.57;8.88;;;;;;;21.52;49.23;99075.72;7294101;19;129106;-37
2023/12/31 02:21:55;;;;;;;205.60;7.50;;;;;;;21.54;48.97;99077.22;7292057;19;130235;-39
2023/12/31 02:24:34;;;;;;;222.02;8.15;;;;;;;21.52;49.19;99060.84;7292910;19;131426;-38
2023/12/31 02:27:00;;;;;;;242.68;8.85;;;;;;;21.53;48.92;99064.31;7291966;19;130374;-35
2023/12/31 02:29:25;;;;;;;191.90;7.07;;;;;;;21.52;48.83;99057.41;7295337;19;129474;-38
2023/12/31 02:31:50;;;;;;;182.20;6.72;;;;;;;21.51;48.95;99054.00;7290524;19;129837;-37
2023/12/31 02:34:16;;;;;;;142.47;5.13;;;;;;;21.52;49.23;99055.63;7290926;19;130047;-37
2023/12/31 02:36:41;;;;;;;304.52;11.43;;;;;;;21.52;49.40;99050.38;7293102;19;131078;-38
2023/12/31 02:39:07;;;;;;;191.33;6.93;;;;;;;21.52;48.72;99050.38;7291411;19;129138;-38
2023/12/31 02:41:34;;;;;;;204.55;8.00;;;;;;;21.53;49.22;99046.81;7292125;19;131028;-36
2023/12/31 02:43:59;;;;;;;177.45;6.57;;;;;;;21.48;49.31;99038.63;7292053;19;130244;-38
2023/12/31 02:46:25;;;;;;;257.70;9.27;;;;;;;21.50;49.41;99047.09;7292942;19;129848;-39
2023/12/31 02:48:50;;;;;;;237.25;8.70;;;;;;;21.51;49.05;99043.53;7290351;19;129675;-38
2023/12/31 02:51:16;;;;;;;189.25;6.97;;;;;;;21.36;48.93;99013.66;7291712;19;132131;-38
2023/12/31 02:53:41;;;;;;;236.85;9.13;;;;;;;21.50;49.20;99028.00;7292305;19;130076;-36
2023/12/31 02:56:06;;;;;;;231.35;8.57;;;;;;;21.53;48.83;99031.13;7294372;19;130299;-38
2023/12/31 02:58:31;;;;;;;140.47;5.23;;;;;;;21.52;48.97;99024.25;7293345;19;129474;-36
2023/12/31 03:00:59;;;;;;;227.52;8.05;;;;;;;21.48;48.71;99009.84;7289282;19;129268;-39
2023/12/31 03:03:25;;;;;;;233.82;8.35;;;;;;;21.54;48.93;99011.84;7291601;19;130996;-38
2023/12/31 03:05:50;;;;;;;154.32;5.45;;;;;;;21.54;49.24;99017.06;7293613;19;129901;-39
2023/12/31 03:08:15;;;;;;;141.47;5.00;;;;;;;21.53;48.93;99015.44;7292923;19;129981;-37
2023/12/31 03:10:41;;;;;;;277.35;10.85;;;;;;;21.51;48.86;99012.16;7291659;19;129331;-39
2023/12/31 03:13:06;;;;;;;255.52;8.98;;;;;;;21.53;48.53;99004.97;7291555;19;130808;-37
2023/12/31 03:15:32;;;;;;;192.17;6.93;;;;;;;21.52;49.14;99008.53;7292703;19;130368;-36
2023/12/31 03:17:57;;;;;;;233.17;8.73;;;;;;;21.52;49.28;99003.31;7293055;19;130101;-39
2023/12/31 03:20:23;;;;;;;196.65;7.43;;;;;;;21.53;48.99;98993.69;7293042;19;130859;-38
2023/12/31 03:22:48;;;;;;;258.63;9.38;;;;;;;21.52;49.31;98992.03;7291414;19;133506;-37
2023/12/31 03:25:14;;;;;;;187.00;7.00;;;;;;;21.52;49.07;98992.03;7290485;19;130407;-37
2023/12/31 03:27:40;;;;;;;181.77;6.57;;;;;;;21.51;48.58;98986.00;7298035;19;129514;-38
2023/12/31 03:30:06;;;;;;;194.18;7.28;;;;;;;21.52;48.54;98973.72;7299034;19;129687;-39
2023/12/31 03:32:32;;;;;;;244.65;8.88;;;;;;;21.51;49.32;98970.31;7295548;19;131448;-38
2023/12/31 03:34:58;;;;;;;189.95;6.95;;;;;;;21.46;49.14;98964.72;7297622;19;132772;-39
2023/12/31 03:37:23;;;;;;;195.02;7.10;;;;;;;21.52;48.82;98961.47;7298859;19;130540;-38
2023/12/31 03:39:51;;;;;;;240.95;9.10;;;;;;;21.53;48.82;98964.91;7299780;19;129639;-36
2023/12/31 03:42:17;;;;;;;275.75;10.27;;;;;;;21.54;49.16;98962.13;7295869;19;131735;-38
2023/12/31 03:44:42;;;;;;;232.80;9.13;;;;;;;21.52;48.67;98960.63;7296671;19;130293;-39
2023/12/31 03:47:08;;;;;;;188.40;6.80;;;;;;;21.52;48.88;98961.47;7298693;19;130918;-38
2023/12/31 03:49:33;;;;;;;195.55;7.40;;;;;;;21.48;48.83;98954.91;7299058;19;131058;-35
2023/12/31 03:51:58;;;;;;;232.30;8.32;;;;;;;21.52;49.18;98961.47;7298776;19;133087;-37
2023/12/31 03:54:24;;;;;;;93.63;3.57;;;;;;;21.53;48.59;98959.69;7297340;19;130306;-38
2023/12/31 03:56:49;;;;;;;279.30;10.37;;;;;;;21.52;49.09;98945.78;7296093;19;129927;-38
2023/12/31 03:59:14;;;;;;;253.07;9.13;;;;;;;21.56;49.30;98948.91;7297673;19;129141;-39
2023/12/31 04:01:44;;;;;;;226.43;8.45;;;;;;;21.52;49.07;98948.38;7295809;19;130066;-37
2023/12/31 04:04:10;;;;;;;190.05;6.93;;;;;;;21.54;48.66;98948.22;7296779;19;130837;-37
2023/12/31 04:06:36;;;;;;;101.33;3.77;;;;;;;21.52;48.50;98934.47;7297784;19;130240;-38
2023/12/31 04:09:01;;;;;;;210.73;7.82;;;;;;;21.40;48.62;98910.38;7297020;19;130946;-38
2023/12/31 04:11:26;;;;;;;165.07;5.93;;;;;;;21.54;48.90;98935.97;7297879;19;130849;-37
2023/12/31 04:13:51;;;;;;;195.50;7.43;;;;;;;21.53;49.09;98929.13;7296882;19;130989;-39
2023/12/31 04:16:17;;;;;;;185.25;6.70;;;;;;;21.58;48.79;98929.47;7298042;19;129222;-38
2023/12/31 04:18:42;;;;;;;283.60;10.68;;;;;;;21.55;49.17;98919.31;7296826;19;129672;-36
2023/12/31 04:21:07;;;;;;;194.52;6.82;;;;;;;21.54;49.21;98916.84;7296472;19;131675;-37
2023/12/31 04:23:33;;;;;;;211.27;8.20;;;;;;;21.53;48.98;98921.28;7295852;19;131497;-38
2023/12/31 04:25:58;;;;;;;219.40;8.00;;;;;;;21.52;48.49;98914.38;7297425;19;132689;-39
2023/12/31 04:28:23;;;;;;;265.60;9.85;;;;;;;21.52;48.85;98914.38;7297704;19;131070;-35
2023/12/31 04:30:49;;;;;;;189.20;7.50;;;;;;;21.51;49.20;98910.16;7292767;19;130216;-37
2023/12/31 04:33:14;;;;;;;230.63;8.40;;;;;;;21.52;49.23;98909.16;7296394;19;129179;-38
2023/12/31 04:35:40;;;;;;;222.18;8.07;;;;;;;21.51;49.07;98907.53;7296643;19;129351;-38
2023/12/31 04:38:05;;;;;;;257.90;9.38;;;;;;;21.51;48.77;98907.53;7295010;19;129262;-38
2023/12/31 04:40:30;;;;;;;136.88;5.00;;;;;;;21.52;48.72;98898.69;7296539;19;130056;-39
2023/12/31 04:42:56;;;;;;;172.32;6.20;;;;;;;21.53;48.61;98900.34;7294146;19;130410;-38
2023/12/31 04:45:21;;;;;;;241.70;8.90;;;;;;;21.53;49.36;98896.91;7296799;19;129800;-38
2023/12/31 04:47:46;;;;;;;222.07;8.33;;;;;;;21.50;49.09;98884.94;7297073;19;129376;-38
2023/12/31 04:50:12;;;;;;;236.60;8.77;;;;;;;21.50;48.95;98884.94;7299210;19;132142;-38
2023/12/31 04:52:37;;;;;;;206.77;7.60;;;;;;;21.55;49.13;98887.13;7295400;19;131058;-35
2023/12/31 04:55:03;;;;;;;167.73;5.87;;;;;;;21.53;48.75;98874.19;7292732;19;129119;-38
2023/12/31 04:57:28;;;;;;;217.63;7.80;;;;;;;21.52;49.13;98877.78;7297154;19;131042;-35
2023/12/31 04:59:53;;;;;;;236.10;9.03;;;;;;;21.55;49.04;98877.44;7298507;19;130917;-38
2023/12/31 05:02:19;;;;;;;182.00;6.65;;;;;;;21.53;48.51;98874.19;7293810;19;130024;-37
2023/12/31 05:04:44;;;;;;;243.55;8.65;;;;;;;21.53;49.20;98863.75;7293155;19;129488;-38
2023/12/31 05:07:11;;;;;;;94.75;3.60;;;;;;;21.53;48.74;98863.75;7297333;19;129923;-35
2023/12/31 05:09:36;;;;;;;137.63;4.93;;;;;;;21.49;48.79;98849.31;7295749;19;130490;-37
2023/12/31 05:12:01;;;;;;;196.20;7.13;;;;;;;21.55;48.82;98853.91;7295823;19;130789;-38
2023/12/31 05:14:27;;;;;;;235.60;8.60;;;;;;;21.55;49.00;98850.50;7295398;19;131126;-37
2023/12/31 05:16:52;;;;;;;101.30;3.95;;;;;;;21.53;48.59;98842.81;7295149;19;129360;-34
2023/12/31 05:19:17;;;;;;;182.05;6.72;;;;;;;21.53;49.07;98842.81;7295148;19;129428;-37
2023/12/31 05:21:43;;;;;;;215.73;8.15;;;;;;;21.51;48.85;98839.53;7292675;19;131163;-36
2023/12/31 05:24:08;;;;;;;266.05;9.60;;;;;;;21.53;49.07;98837.59;7292496;19;129675;-36
2023/12/31 05:26:33;;;;;;;198.60;7.00;;;;;;;21.55;49.03;98835.59;7297435;19;130767;-37
2023/12/31 05:28:59;;;;;;;176.98;6.43;;;;;;;21.52;49.06;98827.25;7294661;19;130149;-38
2023/12/31 05:31:24;;;;;;;230.03;8.33;;;;;;;21.39;48.68;98804.16;7294786;19;130414;-37
2023/12/31 05:33:49;;;;;;;204.60;7.55;;;;;;;21.53;48.90;98827.13;7295730;19;130011;-37
2023/12/31 05:36:15;;;;;;;242.90;8.60;;;;;;;21.50;48.36;98809.09;7295921;19;129408;-36
2023/12/31 05:38:40;;;;;;;226.73;8.17;;;;;;;21.54;48.42;98815.66;7293771;19;130282;-38
2023/12/31 05:41:05;;;;;;;252.23;9.23;;;;;;;21.55;48.47;98813.88;7294201;19;131676;-38
2023/12/31 05:43:31;;;;;;;183.98;6.75;;;;;;;21.55;48.97;98814.69;7296302;19;132515;-38
2023/12/31 05:45:56;;;;;;;253.07;9.52;;;;;;;21.39;48.68;98783.25;7294765;19;130150;-38
2023/12/31 05:48:21;;;;;;;163.80;5.97;;;;;;;21.55;48.98;98809.44;7295105;19;130060;-36
2023/12/31 05:50:47;;;;;;;332.98;12.77;;;;;;;21.43;48.80;98797.66;7291422;19;129668;-38
2023/12/31 05:53:13;;;;;;;149.93;5.38;;;;;;;21.54;48.93;98810.44;7295130;19;130444;-37
2023/12/31 05:55:38;;;;;;;180.27;6.63;;;;;;;21.54;48.87;98807.81;7294618;19;129254;-35
2023/12/31 05:58:04;;;;;;;187.48;6.78;;;;;;;21.53;48.47;98803.59;7294926;19;131224;-38
2023/12/31 06:00:29;;;;;;;284.98;10.45;;;;;;;21.54;49.12;98802.59;7293724;19;129733;-38
2023/12/31 06:02:55;;;;;;;137.80;5.32;;;;;;;21.54;48.30;98802.59;7293383;19;129692;-36
2023/12/31 06:05:21;;;;;;;188.20;7.03;;;;;;;21.56;48.55;98800.66;7294517;19;129776;-39
2023/12/31 06:07:46;;;;;;;226.97;8.70;;;;;;;21.54;48.88;98797.38;7293972;19;129600;-38
2023/12/31 06:10:12;;;;;;;271.10;9.77;;;;;;;21.53;48.61;98793.13;7293840;19;130497;-37
2023/12/31 06:12:37;;;;;;;201.13;7.30;;;;;;;21.55;48.37;98796.38;7293667;19;130787;-38
2023/12/31 06:15:06;;;;;;;174.40;6.53;;;;;;;21.53;48.36;98793.13;7291849;19;129315;-37
2023/12/31 06:17:33;;;;;;;252.68;9.15;;;;;;;21.56;48.62;98794.59;7293967;19;130252;-37
2023/12/31 06:19:59;;;;;;;261.30;9.98;;;;;;;21.54;48.42;98792.13;7294139;19;131462;-36
2023/12/31 06:22:25;;;;;;;166.70;6.07;;;;;;;21.58;49.34;98788.22;7292798;19;130077;-37
2023/12/31 06:24:50;;;;;;;213.63;8.00;;;;;;;21.55;49.09;98783.28;7290383;19;129634;-36
2023/12/31 06:27:16;;;;;;;215.82;8.13;;;;;;;21.55;48.48;98779.88;7291126;19;131124;-38
2023/12/31 06:29:41;;;;;;;191.40;6.90;;;;;;;21.54;49.06;98771.22;7293567;19;130383;-37
2023/12/31 06:32:07;;;;;;;199.80;7.43;;;;;;;21.54;48.87;98784.28;7292366;19;129717;-39
2023/12/31 06:34:32;;;;;;;132.77;4.87;;;;;;;21.55;48.79;98778.06;7292266;19;129358;-38
2023/12/31 06:36:57;;;;;;;425.50;16.48;;;;;;;21.56;48.40;98778.91;7287746;19;130166;-38
2023/12/31 06:39:23;;;;;;;210.60;7.73;;;;;;;21.53;48.81;98781.84;7292284;19;129606;-37
2023/12/31 06:41:50;;;;;;;182.25;6.57;;;;;;;21.38;49.02;98755.47;7291692;19;130636;-38
2023/12/31 06:44:15;;;;;;;157.10;5.72;;;;;;;21.52;48.51;98781.00;7290257;19;129718;-40
2023/12/31 06:46:40;;;;;;;249.68;8.95;;;;;;;21.52;49.08;98769.72;7292294;19;131526;-38
2023/12/31 06:49:06;;;;;;;186.30;6.90;;;;;;;21.54;49.20;98773.81;7289706;19;134713;-37
2023/12/31 06:51:31;;;;;;;252.80;9.00;;;;;;;21.55;48.99;98772.03;7293207;19;129302;-38
2023/12/31 06:53:58;;;;;;;191.93;7.53;;;;;;;21.42;48.49;98759.41;7290793;19;129372;-38
2023/12/31 06:56:23;;;;;;;287.23;10.25;;;;;;;21.46;48.63;98762.50;7292371;19;130288;-38
2023/12/31 06:58:50;;;;;;;188.13;6.93;;;;;;;21.55;49.31;98772.84;7288467;19;130307;-38
2023/12/31 07:01:15;;;;;;;114.63;4.22;;;;;;;21.56;48.45;98773.66;7288731;19;129701;-38
2023/12/31 07:03:41;;;;;;;201.88;7.35;;;;;;;21.57;48.98;98770.06;7289374;19;129253;-37
2023/12/31 07:06:07;;;;;;;238.87;8.77;;;;;;;21.54;48.88;98767.75;7290390;19;130885;-37
2023/12/31 07:08:33;;;;;;;259.58;9.63;;;;;;;21.44;48.82;98749.59;7289940;19;130449;-37
2023/12/31 07:10:58;;;;;;;158.63;6.00;;;;;;;21.55;48.28;98762.38;7290139;19;129488;-38
2023/12/31 07:13:23;;;;;;;226.00;8.40;;;;;;;21.55;48.60;98757.13;7287729;19;131539;-39
2023/12/31 07:15:49;;;;;;;217.13;7.93;;;;;;;21.57;48.49;98764.81;7290097;19;130847;-37
2023/12/31 07:18:14;;;;;;;134.02;5.07;;;;;;;21.54;48.33;98750.28;7290952;19;130377;-38
2023/12/31 07:20:40;;;;;;;135.93;5.10;;;;;;;21.52;48.99;98749.63;7288170;19;129177;-39
2023/12/31 07:23:05;;;;;;;321.43;12.20;;;;;;;21.54;48.66;98752.06;7290333;19;129352;-38
2023/12/31 07:25:32;;;;;;;269.33;9.80;;;;;;;21.52;48.59;98747.00;7289425;19;130921;-38
2023/12/31 07:27:57;;;;;;;;;;;;;;;21.54;48.84;98745.06;7286176;19;132159;-39
2023/12/31 07:30:23;;;;;;;160.73;5.72;;;;;;;21.44;48.37;98728.69;7290033;19;130963;-39
2023/12/31 07:32:48;;;;;;;266.85;9.75;;;;;;;21.54;49.21;98742.44;7286290;19;130485;-36
2023/12/31 07:35:14;;;;;;;166.73;5.93;;;;;;;21.38;48.50;98718.88;7288688;19;129634;-38
2023/12/31 07:37:39;;;;;;;252.23;9.43;;;;;;;21.53;48.94;98743.44;7288859;19;130695;-38
2023/12/31 07:40:06;;;;;;;220.52;8.25;;;;;;;21.58;48.61;98743.78;7283383;19;131517;-39
2023/12/31 07:42:32;;;;;;;;;;;;;;;21.55;48.25;98740.66;7287649;19;129217;-38
2023/12/31 07:44:57;;;;;;;218.30;8.20;;;;;;;21.56;48.62;98737.88;7288615;19;131723;-38
2023/12/31 07:47:22;;;;;;;183.63;6.95;;;;;;;21.54;48.47;98745.06;7288707;19;131980;-38
2023/12/31 07:49:48;;;;;;;101.83;3.83;;;;;;;21.50;48.66;98735.88;7288870;19;129743;-37
2023/12/31 07:52:14;;;;;;;312.27;11.25;;;;;;;21.52;48.90;98739.16;7288910;19;129879;-37
2023/12/31 07:54:39;;;;;;;234.20;8.48;;;;;;;21.55;48.43;98738.84;7284257;19;130282;-44
2023/12/31 07:57:05;;;;;;;297.77;11.70;;;;;;;21.55;48.24;98732.81;7285955;19;130330;-38
2023/12/31 07:59:30;;;;;;;178.00;6.45;;;;;;;21.54;48.34;98737.22;7286304;19;131663;-38
2023/12/31 08:01:57;;;;;;;262.37;10.00;;;;;;;21.56;48.82;98737.03;7286497;19;129753;-39
2023/12/31 08:04:23;;;;;;;266.77;9.85;;;;;;;21.54;48.92;98731.16;7285381;19;130973;-38
2023/12/31 08:06:48;;;;;;;224.48;8.45;;;;;;;21.55;48.85;98730.97;7285661;19;130339;-38
2023/12/31 08:09:15;;;;;;;194.13;7.07;;;;;;;21.56;48.32;98726.59;7284804;19;130042;-38
2023/12/31 08:11:40;;;;;;;275.80;9.82;;;;;;;21.54;48.98;98729.38;7287521;19;130109;-39
2023/12/31 08:14:06;;;;;;;365.77;14.47;;;;;;;21.55;48.47;98730.97;7288594;19;129574;-37
2023/12/31 08:16:31;;;;;;;226.60;8.17;;;;;;;21.53;49.06;98725.13;7292984;19;129866;-37
2023/12/31 08:18:56;;;;;;;243.02;9.15;;;;;;;21.56;48.21;98727.41;7295877;19;132248;-37
2023/12/31 08:21:22;;;;;;;258.08;9.70;;;;;;;21.40;48.57;98711.66;7296248;19;132611;-38
2023/12/31 08:23:47;;;;;;;249.35;9.35;;;;;;;21.59;48.68;98721.03;7286870;19;131271;-38
2023/12/31 08:26:13;;;;;;;196.73;7.13;;;;;;;21.57;48.46;98715.97;7289991;19;130299;-37
2023/12/31 08:28:39;;;;;;;225.93;8.13;;;;;;;21.57;48.74;98713.34;7295169;19;131033;-38
2023/12/31 08:31:04;;;;;;;232.15;9.10;;;;;;;21.58;48.40;98715.00;7293330;19;129709;-37
2023/12/31 08:33:29;;;;;;;283.40;10.77;;;;;;;21.57;48.38;98708.13;7294106;19;130076;-37
2023/12/31 08:35:55;;;;;;;193.73;7.47;;;;;;;21.57;48.47;98700.25;7286985;19;132152;-38
2023/12/31 08:38:20;;;;;;;290.83;11.15;;;;;;;21.59;48.38;98700.94;7295278;19;131127;-38
2023/12/31 08:40:45;;;;;;;267.83;10.77;;;;;;;21.46;48.81;98684.06;7288952;19;129471;-37
2023/12/31 08:43:11;;;;;;;251.55;9.45;;;;;;;21.57;48.48;98697.66;7285211;19;130461;-38
2023/12/31 08:45:39;;;;;;;196.97;7.17;;;;;;;21.58;48.38;98694.06;7289336;19;129609;-40
2023/12/31 08:48:10;;;;;;;354.20;13.55;;;;;;;21.58;48.66;98688.00;7288873;19;131457;-39
2023/12/31 08:50:36;;;;;;;274.85;10.25;;;;;;;21.50;48.83;98674.94;7288084;19;130475;-38
2023/12/31 08:53:01;;;;;;;213.43;7.57;;;;;;;21.59;48.10;98684.41;7283875;19;131142;-39
2023/12/31 08:55:26;;;;;;;206.68;7.80;;;;;;;21.58;48.31;98683.63;7288295;19;132630;-37
2023/12/31 08:57:52;;;;;;;265.60;9.70;;;;;;;21.58;48.29;98683.63;7287757;19;130789;-38
2023/12/31 09:00:17;;;;;;;106.53;3.83;;;;;;;21.59;48.75;98673.94;7294245;19;129960;-38
2023/12/31 09:02:43;;;;;;;224.07;8.33;;;;;;;21.58;48.59;98686.22;7287552;19;132283;-39
2023/12/31 09:05:09;;;;;;;311.52;11.80;;;;;;;21.60;48.14;98679.00;7279670;19;130863;-38
2023/12/31 09:07:35;;;;;;;186.02;6.85;;;;;;;21.59;48.12;98674.78;7294633;19;129666;-39
2023/12/31 09:10:02;;;;;;;265.83;10.00;;;;;;;21.58;48.19;98670.53;7292928;19;130780;-39
2023/12/31 09:12:28;;;;;;;225.60;8.23;;;;;;;21.68;48.37;98676.41;7293482;19;130515;-38
2023/12/31 09:14:54;;;;;;;142.05;5.03;;;;;;;21.62;49.44;98669.22;7285942;19;131495;-38
2023/12/31 09:17:19;;;;;;;245.07;9.02;;;;;;;21.58;49.98;98673.16;7289706;19;132098;-38
2023/12/31 09:19:44;;;;;;;233.57;8.77;;;;;;;21.57;50.48;98666.25;7288734;19;130882;-37
2023/12/31 09:22:10;;;;;;;286.60;10.50;;;;;;;21.55;50.05;98673.44;7281414;19;130998;-37
2023/12/31 09:24:35;;;;;;;298.23;11.18;;;;;;;21.52;50.93;98665.09;7287889;19;132114;-39
2023/12/31 09:27:01;;;;;;;333.77;12.75;;;;;;;21.55;51.23;98668.22;7292678;19;131323;-39
2023/12/31 09:29:27;;;;;;;231.35;8.60;;;;;;;21.53;51.31;98664.97;7290397;19;131474;-39
2023/12/31 09:31:52;;;;;;;192.10;7.17;;;;;;;21.36;51.25;98638.94;7292301;19;130106;-37
2023/12/31 09:34:17;;;;;;;252.55;9.20;;;;;;;21.50;51.67;98657.41;7287367;19;131390;-37
2023/12/31 09:36:43;;;;;;;155.47;5.77;;;;;;;21.51;51.53;98650.41;7291947;19;129115;-37
2023/12/31 09:39:08;;;;;;;251.55;9.45;;;;;;;21.48;51.70;98645.50;7289811;19;130118;-39
2023/12/31 09:41:36;;;;;;;253.60;9.25;;;;;;;21.49;51.45;98645.34;7287946;19;130865;-39
2023/12/31 09:44:03;;;;;;;302.38;11.05;;;;;;;21.44;52.16;98650.22;7286427;19;131012;-37
2023/12/31 09:46:32;;;;;;;262.60;9.57;;;;;;;21.45;52.25;98632.75;7288762;19;132114;-38
2023/12/31 09:48:59;;;;;;;226.57;8.30;;;;;;;21.44;52.35;98634.53;7290242;19;129642;-38
2023/12/31 09:51:25;;;;;;;186.38;6.82;;;;;;;21.44;51.92;98624.09;7291378;19;132252;-38
2023/12/31 09:53:53;;;;;;;266.23;9.90;;;;;;;21.43;52.02;98626.88;7288706;19;130350;-38
2023/12/31 09:56:19;;;;;;;265.40;10.00;;;;;;;21.41;52.57;98616.56;7292766;19;130425;-38
2023/12/31 09:58:46;;;;;;;137.90;5.20;;;;;;;21.28;52.63;98581.41;7289290;19;130644;-38
2023/12/31 10:01:11;;;;;;;258.60;9.87;;;;;;;21.40;53.64;98612.31;7289454;19;130798;-38
2023/12/31 10:03:38;;;;;;;293.85;11.02;;;;;;;21.38;53.27;98611.66;7285305;19;130827;-38
2023/12/31 10:06:05;;;;;;;259.55;9.70;;;;;;;21.33;52.93;98598.25;7292072;19;132462;-37
2023/12/31 10:08:31;;;;;;;;;;;;;;;21.26;54.22;98592.03;7288861;19;129638;-38
2023/12/31 10:10:56;;;;;;;249.05;10.30;;;;;;;21.18;54.45;98584.19;7288710;19;130496;-38
2023/12/31 10:13:22;;;;;;;220.60;8.30;;;;;;;21.11;54.95;98584.97;7286642;19;130441;-38
2023/12/31 10:15:47;;;;;;;197.67;7.90;;;;;;;21.04;55.62;98582.19;7294995;19;131361;-38
2023/12/31 10:18:13;;;;;;;349.47;14.30;;;;;;;21.04;55.26;98578.78;7285561;19;131302;-38
2023/12/31 10:20:38;;;;;;;152.70;6.07;;;;;;;21.01;55.45;98576.47;7289322;19;129223;-38
2023/12/31 10:23:04;;;;;;;242.30;9.45;;;;;;;20.95;56.02;98575.31;7287677;19;130308;-37
2023/12/31 10:25:30;;;;;;;197.10;8.07;;;;;;;20.92;56.36;98562.56;7293823;19;129531;-38
2023/12/31 10:27:57;;;;;;;175.23;6.88;;;;;;;20.90;56.15;98561.91;7292776;19;130842;-38
2023/12/31 10:30:22;;;;;;;;;;;;;;;20.90;56.12;98558.47;7290931;19;130163;-38
2023/12/31 10:32:48;;;;;;;255.23;10.10;;;;;;;20.89;56.35;98549.78;7291999;19;130829;-38
2023/12/31 10:35:19;;;;;;;215.00;8.88;;;;;;;20.90;56.37;98535.78;7287864;19;131245;-38
2023/12/31 10:37:44;;;;;;;234.10;10.55;;;;;;;20.85;50.83;98537.22;7289519;19;129028;-38
2023/12/31 10:40:19;;;;;;;290.58;13.18;;;;;;;20.82;50.53;98527.09;7288674;19;130104;-38
2023/12/31 10:42:51;;;;;;;303.92;13.10;;;;;;;20.83;49.83;98519.09;7287987;19;130416;-38
2023/12/31 10:45:19;;;;;;;325.30;13.98;;;;;;;20.86;50.92;98518.78;7287751;19;130509;-36
2023/12/31 10:47:48;;;;;;;226.63;9.77;;;;;;;20.92;51.49;98518.16;7290882;19;130602;-37
2023/12/31 10:50:18;;;;;;;246.52;10.82;;;;;;;21.00;51.65;98499.06;7288704;19;130452;-38
2023/12/31 10:52:45;;;;;;;209.38;9.00;;;;;;;21.05;52.24;98502.84;7288806;19;130325;-35
2023/12/31 10:55:13;;;;;;;357.70;14.93;;;;;;;21.13;52.79;98517.69;7289328;19;130564;-38
2023/12/31 10:57:41;;;;;;;213.40;9.40;;;;;;;21.20;52.75;98511.66;7290226;19;129192;-38
2023/12/31 11:00:09;;;;;;;260.70;11.30;;;;;;;21.25;52.48;98514.59;7290291;19;129615;-38
2023/12/31 11:02:35;;;;;;;394.88;16.77;;;;;;;21.33;52.49;98505.94;7281650;19;130728;-38